Luis Varela

Olheiro-Chefe - Racing Club
24 Set 2028
Domingo
Processo

Personalidade

Adaptabilidade (19) Ambição (8) Controvérsia (16) Lealdade (9) Pressão (3) Profissionalismo (10) Espírito Esportivo (12) Temperamento (13)

Perfil

Estilo de Treinamento Democrático
Licença Continental B
Determinação 7
Gestão de Pessoas 11
Motivação 5
Disciplina 15
Satisfação no Trabalho
100%
Fadiga
0%
Função Olheiro-Chefe
Salário 42.6K p/s
Contrato 14.03.2030

Desempenho

Comportamento Bom
Eficácia do Treinamento
39%
Desenvolvimento do Jogador
25%
Prevenção de Lesões
75%
Implementação Tática
35%

Eventos Recentes

Participou de uma reunião de recrutamento agora
Participou de uma reunião de recrutamento agora
Participou de uma reunião de recrutamento 7d atrás
Participou de uma reunião de recrutamento 7d atrás
Recomendou um alvo de transferência 7d atrás
Recomendou um alvo de transferência 7d atrás
Recomendou um alvo de transferência 14d atrás
Recomendou um alvo de transferência 14d atrás

Monitorando agora

196
Jogador Clube Status Habilidade Confiança Observado Última observação Último voto
Ignacio Ovando Rosario Central Ativo 116 / 115 62% 1 19.06.2028 Aprovar
Juan Manuel Villalba Tigre Negociando 119 / 121 62% 1 02.06.2028 -
Tammy Abraham Aston Villa Ativo 149 / 149 40% 1 02.06.2028 -
Dwight McNeil Crystal Palace Ativo 151 / 147 40% 2 31.05.2028 -
Mohamed-Ali Cho Hull City Ativo 151 / 142 40% 7 30.05.2028 -
Malick Fofana Sunderland Ativo 140 / 151 40% 4 30.05.2028 -
Archie Gray Southampton Ativo 147 / 152 40% 2 29.05.2028 -
Jayden Addai Bari Ativo 138 / 138 40% 5 27.05.2028 -
Jack McGlynn Stoke City Ativo 143 / 133 40% 6 26.05.2028 -
Jayden Danns Bradford City Ativo 135 / 144 40% 2 26.05.2028 -
Abdoul Ouattara Port Vale Ativo 128 / 132 40% 8 24.05.2028 -
Yasin Ayari Middlesbrough Ativo 158 / 151 40% 1 24.05.2028 -
Omari Hutchinson Nottingham Forest Ativo 168 / 153 40% 2 19.05.2028 -
Richard Koné Queens Park Rangers Ativo 142 / 131 40% 1 19.05.2028 -
Luca Williams-Barnett Walsall Ativo 121 / 131 40% 4 18.05.2028 -
Tyreece Campbell Charlton Athletic Ativo 132 / 123 40% 6 18.05.2028 -
Savinho Tottenham Ativo 170 / 164 40% 9 17.05.2028 -
Ra'ees Bangura-Williams Millwall Ativo 117 / 124 40% 1 17.05.2028 -
William Osula Wrexham Ativo 134 / 140 40% 7 16.05.2028 -
Stanley Mills Crewe Alexandra Ativo 128 / 131 40% 2 16.05.2028 -
Jamie Donley West Bromwich Albion Ativo 116 / 128 40% 3 15.05.2028 -
Chemsdine Talbi Sunderland Ativo 160 / 148 40% 8 10.05.2028 -
Malik Mothersille Stockport County Ativo 114 / 126 40% 7 06.05.2028 -
Matěj Jurásek Doncaster Rovers Ativo 127 / 121 40% 4 04.05.2028 -
Ryan Kavuma-McQueen Accrington Stanley Ativo 113 / 125 40% 1 04.05.2028 -
Alex Scott Bournemouth Ativo 166 / 155 40% 8 18.04.2028 -
Antoni Milambo Brentford Ativo 138 / 151 40% 1 14.04.2028 -
Xavi Simons Tottenham Ativo 168 / 162 40% 5 13.04.2028 -
Ar'jany Martha Rotherham United Ativo 112 / 116 40% 1 02.04.2028 -
Yankuba Minteh Brighton Ativo 143 / 160 40% 1 26.03.2028 -
Shea Charles Southampton Ativo 154 / 146 40% 2 22.03.2028 -
Jhon Solís Birmingham Ativo 139 / 138 40% 1 20.03.2028 -
Thierry Small Preston Ativo 126 / 123 40% 2 10.03.2028 -
Ben Gannon Doak Charlton Athletic Ativo 144 / 155 40% 6 09.03.2028 -
Matteo Prati Cagliari Ativo 136 / 141 40% 5 07.03.2028 -
Leo Castledine Middlesbrough Ativo 148 / 137 40% 1 07.03.2028 -
Sergey Pinyaev Lokomotiv Moscow Ativo 147 / 127 40% 1 14.02.2028 -
Unax Agote Real Sociedad Ativo 118 / 121 40% 1 10.02.2028 -
Patricio Moyano Defensores Ativo 110 / 116 40% 1 01.02.2028 -
Marco Miori Alvarado Ativo 117 / 110 40% 1 31.01.2028 -
Alex Luna Instituto Ativo 126 / 135 40% 3 29.01.2028 Observar
Diego Gaitán Maipú Ativo 112 / 119 40% 3 25.01.2028 -
Valentín Serrano Arsenal Ativo 118 / 113 40% 1 22.01.2028 -
Braian Aranda Agropecuario Argentino Ativo 115 / 116 40% 1 20.01.2028 -
Tomás Ferreyra Defensores Unidos Ativo 107 / 115 40% 2 18.01.2028 -
Santiago Martínez Godoy Cruz Ativo 102 / 119 40% 1 15.01.2028 -
Tomás Porra Barracas Central Ativo 109 / 118 40% 1 14.01.2028 -
Jeremías Merlo Gimnasia La Plata Ativo 123 / 125 40% 1 08.01.2028 -
Victor Hernandez Santa Fe Ativo 127 / 125 40% 1 06.01.2028 -
Santiago González Tigre Ativo 129 / 133 40% 3 04.01.2028 -
Angeliño AS Roma Ativo 163 / 153 40% 3 21.12.2027 -
Boubacar Kamara Aston Villa Ativo 169 / 163 40% 1 21.12.2027 -
Wílder Viera Instituto Ativo 110 / 111 55% 1 13.12.2027 -
Nicolás González Juventus Ativo 157 / 160 40% 1 03.12.2027 -
Fábio Carvalho Brentford Ativo 155 / 147 40% 3 30.11.2027 -
Jan Paul van Hecke Tottenham Ativo 150 / 162 40% 2 26.11.2027 -
Ismaël Bennacer Boca Juniors Ativo 144 / 149 40% 8 25.11.2027 -
Pedro Porro Tottenham Ativo 160 / 149 40% 2 24.11.2027 -
Vitaly Janelt Derby County Ativo 145 / 146 40% 3 23.11.2027 -
Matteo Ruggeri Middlesbrough Ativo 168 / 148 40% 3 23.11.2027 -
Rico Henry River Plate Ativo 134 / 145 40% 10 20.11.2027 -
Álex Valle Boca Juniors Ativo 140 / 142 40% 4 20.11.2027 -
Adam Wharton Crystal Palace Ativo 171 / 155 40% 1 17.11.2027 -
Amadou Onana Aston Villa Ativo 152 / 161 40% 3 15.11.2027 -
Quilindschy Hartman Burnley Ativo 138 / 144 40% 1 13.11.2027 -
Tino Livramento Newcastle United Ativo 163 / 165 40% 1 13.11.2027 -
Sven Botman Newcastle United Ativo 163 / 168 40% 1 08.11.2027 -
Jake O'Brien Everton Ativo 150 / 147 40% 1 02.11.2027 -
Justin de Haas Valencia Ativo 123 / 131 40% 1 28.10.2027 -
Exequiel Palacios Lazio Ativo 168 / 157 40% 4 19.10.2027 -
Marco Pellegrino Boca Juniors Ativo 120 / 126 40% 1 19.10.2027 -
Lautaro Di Lollo Boca Juniors Ativo 125 / 129 40% 3 18.10.2027 -
Manu Koné AS Roma Ativo 168 / 163 40% 7 17.10.2027 -
Ayrton Costa Boca Juniors Ativo 146 / 136 40% 3 16.10.2027 -
Franco Ibarra Rosario Central Ativo 122 / 132 40% 4 13.10.2027 -
Santiago Ascacíbar Boca Juniors Ativo 118 / 126 40% 3 07.10.2027 -
Théo Hernández CSKA Moscow Ativo 158 / 153 40% 2 04.10.2027 -
Marash Kumbulla AS Roma Ativo 124 / 137 40% 1 01.10.2027 -
Gonzalo Montiel River Plate Ativo 121 / 128 40% 1 24.09.2027 -
Gustavo Mantuan Zenit Ativo 149 / 135 40% 1 20.09.2027 -
Aníbal Moreno River Plate Ativo 120 / 134 40% 1 19.09.2027 -
Giorgi Kochorashvili Sevilla Ativo 142 / 132 40% 1 18.09.2027 -
Isma Ruiz Villarreal Ativo 150 / 138 40% 1 14.09.2027 -
Jens Cajuste Napoli Ativo 121 / 139 40% 1 08.09.2027 -
Emanuel Mammana Vélez Ativo 136 / 127 40% 1 31.08.2027 -
Eliás Montiel Borussia Dortmund Ativo 146 / 142 40% 1 30.08.2027 -
Jordan Zemura Udinese Ativo 157 / 134 40% 4 19.08.2027 -
Gianluca Busio Venezia Ativo 147 / 138 40% 1 18.08.2027 -
Raoul Bellanova Atalanta Ativo 139 / 158 40% 4 16.08.2027 -
Nuno Tavares Lazio Ativo 149 / 152 40% 3 14.08.2027 -
Evan N'Dicka AS Roma Ativo 174 / 161 40% 3 13.08.2027 -
Matteo Lovato Padova Ativo 129 / 134 40% 2 12.08.2027 -
Curtis Jones Inter Ativo 170 / 165 40% 1 12.08.2027 -
Enrico Delprato Parma Ativo 138 / 140 40% 2 11.08.2027 -
Trevoh Chalobah Como Ativo 165 / 151 40% 2 11.08.2027 -
Alessandro Buongiorno Cagliari Ativo 160 / 158 40% 2 09.08.2027 -
Lewis Ferguson Bologna Ativo 135 / 153 40% 2 06.08.2027 -
Khéphren Thuram Juventus Ativo 165 / 158 40% 3 05.08.2027 -
Billy Gilmour Napoli Ativo 147 / 154 40% 2 05.08.2027 -
André-Franck Zambo Anguissa Napoli Ativo 162 / 164 40% 5 04.08.2027 -
Alessandro Bastoni Inter Ativo 168 / 164 40% 1 02.08.2027 -
Mehdi Dorval Catanzaro Ativo 123 / 131 40% 1 31.07.2027 -
Thierry Rendall Correia Venezia Ativo 142 / 140 40% 3 25.07.2027 -
Florian Grillitsch Frosinone Ativo 148 / 130 40% 2 19.07.2027 -
Sebastiano Luperto Cremonese Ativo 144 / 133 40% 1 18.07.2027 -
Lucas Da Cunha Como Ativo 160 / 143 40% 1 11.07.2027 -
Pervis Estupiñán AC Milan Ativo 147 / 150 40% 1 07.07.2027 -
Mitchel Bakker Modena Ativo 143 / 130 40% 1 07.07.2027 -
Rolando Mandragora Torino Ativo 139 / 144 40% 2 03.07.2027 -
Marc Cucurella Real Madrid Ativo 171 / 151 40% 2 25.06.2027 -
Arthur Atta Fiorentina Ativo 151 / 146 40% 1 20.06.2027 -
Adrián Bernabé Parma Ativo 143 / 143 40% 1 06.06.2027 -
Tomás Molina Argentinos Juniors Ativo 112 / 128 51% 1 02.06.2027 -
Gianluca Scamacca Atalanta Ativo 134 / 149 40% 8 01.06.2027 -
Gonçalo Ramos AC Milan Ativo 157 / 150 40% 3 31.05.2027 -
Andrea Pinamonti Lazio Ativo 146 / 141 40% 5 30.05.2027 -
Eduardo Lozano Botafogo Ativo 138 / 146 40% 3 30.05.2027 -
Ollie Watkins Al-Hilal Ativo 150 / 152 40% 11 28.05.2027 -
Nicolò Zaniolo Udinese Ativo 157 / 140 40% 3 27.05.2027 -
Mathys Tel Tottenham Ativo 159 / 142 40% 3 17.05.2027 -
Donyell Malen AS Roma Ativo 135 / 146 40% 5 16.05.2027 -
Giacomo Raspadori Atalanta Ativo 150 / 151 40% 5 15.05.2027 -
Che Adams Torino Ativo 154 / 133 40% 13 10.05.2027 -
Mateo Pellegrino Fiorentina Ativo 144 / 144 40% 2 23.04.2027 -
Morgan Rogers Chelsea Ativo 147 / 163 40% 3 27.03.2027 -
Jarrod Bowen West Ham United Ativo 163 / 158 40% 5 26.03.2027 -
Wilson Isidor Sunderland Ativo 124 / 140 40% 2 25.03.2027 -
Thiago Brentford Ativo 143 / 149 40% 4 21.03.2027 -
Kevin Schade Chelsea Ativo 148 / 151 40% 3 21.03.2027 -
Oli McBurnie Hull City Ativo 119 / 129 40% 1 17.03.2027 -
Christian Pulisic AC Milan Ativo 182 / 166 40% 2 15.03.2027 -
Taty Castellanos West Ham United Ativo 161 / 148 40% 2 09.03.2027 -
Nicolas Jackson Aston Villa Ativo 153 / 148 40% 2 04.03.2027 -
Emanuel Emegha Chelsea Ativo 145 / 145 40% 1 02.03.2027 -
Noah Okafor Leeds United Ativo 144 / 145 40% 1 28.02.2027 -
Georginio Rutter Brighton Ativo 150 / 150 40% 2 24.02.2027 -
Ismaïla Sarr Crystal Palace Ativo 137 / 149 40% 2 17.02.2027 -
Rodrigo Muniz Fulham Ativo 122 / 134 40% 2 15.02.2027 -
Joshua Zirkzee Manchester United Ativo 151 / 146 40% 1 14.02.2027 -
Eddie Nketiah Crystal Palace Ativo 134 / 138 40% 1 10.02.2027 -
Yoane Wissa Newcastle United Ativo 128 / 148 40% 5 27.01.2027 -
Armando Broja Burnley Ativo 129 / 134 40% 2 27.01.2027 -
Lorenzo Colombo Genoa Ativo 118 / 130 40% 2 26.12.2026 -
Manu Morlanes Mallorca Ativo 147 / 128 40% 4 15.12.2026 -
Robin Roefs Sunderland Ativo 140 / 143 40% 1 08.12.2026 -
Maílson Al-Taawoun Ativo 112 / 128 40% 1 07.12.2026 -
Kenny Tete Fulham Ativo 127 / 141 40% 3 30.11.2026 -
Mario Pašalić Atalanta Ativo 133 / 148 40% 1 28.11.2026 -
Yunus Akgün Galatasaray Ativo 126 / 141 40% 1 22.11.2026 -
Hidemasa Morita Hull City Ativo 157 / 135 40% 3 20.11.2026 -
Zion Suzuki Aston Villa Ativo 130 / 138 40% 1 20.11.2026 -
Leroy Sané Galatasaray Ativo 142 / 158 40% 2 17.11.2026 -
Galeno Al-Ahli Ativo 160 / 151 40% 1 17.11.2026 -
Malcom Al Jazira Ativo 157 / 149 40% 2 11.11.2026 -
Christian Walton Ipswich Town Ativo 139 / 122 40% 1 09.11.2026 -
Tyrhys Dolan Espanyol Ativo 147 / 139 40% 3 05.11.2026 -
Brian Brobbey Sunderland Ativo 122 / 137 40% 1 04.11.2026 -
David Brooks Bournemouth Ativo 154 / 136 40% 1 04.11.2026 -
Martín Ojeda Orlando City Ativo 122 / 131 40% 2 01.11.2026 -
Alex Iwobi Fulham Ativo 137 / 138 40% 1 01.11.2026 -
Rubén Blanco Yokohama F. Marinos Ativo 116 / 132 40% 2 29.10.2026 -
Mike Maignan AC Milan Ativo 178 / 168 40% 1 27.10.2026 -
Ander Guevara Racing Genk Ativo 117 / 130 40% 2 24.10.2026 -
Leon Goretzka Aston Villa Ativo 165 / 158 40% 1 21.10.2026 -
Nikita Haikin Bodo/Glimt Ativo 131 / 130 40% 1 18.10.2026 -
Mads Hermansen West Ham United Ativo 117 / 135 40% 1 13.10.2026 -
Petar Musa FC Dallas Ativo 125 / 135 40% 1 12.10.2026 -
Zack Steffen Colorado Rapids Ativo 143 / 128 40% 1 09.10.2026 -
Tomoki Hayakawa Kashima Antlers Ativo 156 / 129 40% 2 08.10.2026 -
Keisuke Osako Sanfrecce Hiroshima Ativo 124 / 131 40% 1 08.10.2026 -
Jens Petter Hauge Bodo/Glimt Ativo 150 / 138 40% 2 06.10.2026 -
Fernando Gorriarán Tigres Ativo 132 / 139 40% 3 05.10.2026 -
Carlos Álvarez Club America Ativo 134 / 141 40% 3 03.10.2026 -
Pedrinho Shakhtar Ativo 127 / 133 40% 1 03.10.2026 -
Luka Jović CFR Cluj Ativo 126 / 139 40% 1 02.10.2026 -
Edu Expósito Espanyol Ativo 128 / 147 40% 1 17.09.2026 -
Agustín Palavecino Cruz Azul Ativo 127 / 138 40% 1 17.09.2026 -
Ryan Gauld Vancouver Whitecaps Ativo 123 / 135 40% 1 15.09.2026 -
Sergi Cardona KAA Gent Ativo 141 / 140 40% 3 14.09.2026 -
Erik Lira Cruz Azul Ativo 140 / 130 40% 2 11.09.2026 -
Miles Robinson FC Cincinnati Ativo 135 / 129 40% 4 10.09.2026 -
Jonathan Bamba Chicago Fire Ativo 130 / 131 40% 1 08.09.2026 -
Carlos Rodríguez Cruz Azul Ativo 125 / 136 40% 2 04.09.2026 -
Luis Romo Guadalajara Ativo 126 / 141 40% 2 04.09.2026 -
Richard Ledezma Guadalajara Ativo 145 / 132 40% 1 02.09.2026 -
Yves Bissouma Tottenham Ativo 156 / 136 40% 1 31.08.2026 -
Thomas Strakosha AEK Ativo 141 / 124 40% 1 29.08.2026 -
Steven Bergwijn Al-Ittihad Ativo 132 / 151 40% 3 27.08.2026 -
Alejandro Zendejas Club America Ativo 136 / 135 40% 2 20.08.2026 -
Rasmus Kristensen FC Midtjylland Ativo 144 / 141 40% 2 15.08.2026 -
Roger Ibañez Al-Ahli Ativo 135 / 150 40% 1 10.08.2026 -
Hwang In-Beom Porto Ativo 126 / 141 40% 1 06.08.2026 -
Ricardo Horta Braga Ativo 147 / 144 40% 1 05.08.2026 -
Ferland Mendy Real Madrid Ativo 128 / 136 40% 1 02.08.2026 -
Sergio Gómez Real Sociedad Ativo 149 / 134 40% 1 01.08.2026 -
Fran García Betis Ativo 129 / 138 40% 1 01.08.2026 -